Time;durP1;ratioP1;P1;durP2;ratioP2;P2;SDS_P1;SDS_P2;PMS_P1;PMS_P2;Temp;Humidity;BMP_temperature;BMP_pressure;BME280_temperature;BME280_humidity;BME280_pressure;Samples;Min_cycle;Max_cycle;Signal;HPM_P1;HPM_P2
2022/02/18 00:00:17;;;;;;;5.95;5.55;;;;;;;2.66;100.00;99889.22;5009307;28;20034;-84
2022/02/18 00:02:50;;;;;;;6.95;6.45;;;;;;;2.70;100.00;99885.00;5007452;28;20058;-83
2022/02/18 00:05:18;;;;;;;7.13;6.63;;;;;;;2.67;100.00;99888.19;5002395;28;20038;-83
2022/02/18 00:07:46;;;;;;;9.05;8.45;;;;;;;2.94;100.00;99879.41;4998637;28;20046;-84
2022/02/18 00:10:21;;;;;;;8.85;8.25;;;;;;;2.99;100.00;99891.03;5010687;28;20419;-83
2022/02/18 00:12:54;;;;;;;9.70;9.00;;;;;;;3.06;100.00;99896.22;5001051;28;20050;-84
2022/02/18 00:15:28;;;;;;;8.57;7.97;;;;;;;3.06;100.00;99897.03;4996661;28;20058;-85
2022/02/18 00:18:02;;;;;;;8.32;7.72;;;;;;;3.06;100.00;99899.72;5003770;28;20038;-84
2022/02/18 00:20:36;;;;;;;9.02;8.43;;;;;;;3.01;100.00;99899.66;5006664;28;20051;-84
2022/02/18 00:23:10;;;;;;;8.20;7.60;;;;;;;2.82;100.00;99903.72;5008697;28;20045;-82
2022/02/18 00:25:40;;;;;;;7.30;6.80;;;;;;;2.94;100.00;99896.34;5008236;28;20406;-83
2022/02/18 00:28:13;;;;;;;7.97;7.38;;;;;;;3.15;100.00;99889.38;5001190;28;20046;-86
2022/02/18 00:30:46;;;;;;;7.47;6.97;;;;;;;3.26;100.00;99894.84;5013406;28;20502;-84
2022/02/18 00:33:19;;;;;;;7.10;6.60;;;;;;;3.07;100.00;99895.16;5009179;28;20676;-84
2022/02/18 00:35:52;;;;;;;7.28;6.78;;;;;;;2.98;100.00;99910.91;5009447;28;20081;-85
2022/02/18 00:38:28;;;;;;;6.28;5.88;;;;;;;3.09;100.00;99913.75;5007849;28;20061;-83
2022/02/18 00:40:59;;;;;;;7.20;6.70;;;;;;;3.05;100.00;99927.69;5010578;28;20050;-84
2022/02/18 00:43:27;;;;;;;6.90;6.40;;;;;;;3.08;100.00;99931.75;5013679;28;20076;-83
2022/02/18 00:46:02;;;;;;;7.07;6.57;;;;;;;2.95;100.00;99945.53;5006306;28;20083;-84
2022/02/18 00:48:35;;;;;;;7.43;6.93;;;;;;;2.81;100.00;99908.25;5012742;28;20076;-82
2022/02/18 00:51:11;;;;;;;8.25;7.65;;;;;;;3.10;100.00;99932.31;5005033;28;20046;-83
2022/02/18 00:53:46;;;;;;;7.82;7.32;;;;;;;3.14;100.00;99927.25;5012459;28;20487;-84
2022/02/18 00:56:20;;;;;;;8.80;8.20;;;;;;;3.13;100.00;99917.56;5013148;28;20054;-83
2022/02/18 00:59:00;;;;;;;9.25;8.65;;;;;;;3.14;100.00;99935.31;5006515;28;20680;-84
2022/02/18 01:01:28;;;;;;;9.30;8.70;;;;;;;3.15;100.00;99942.31;5008216;28;20480;-83
2022/02/18 01:04:01;;;;;;;9.80;9.10;;;;;;;3.05;100.00;99933.06;5011213;28;20046;-84
2022/02/18 01:06:29;;;;;;;10.40;9.70;;;;;;;3.09;100.00;99922.59;5006882;28;20533;-84
2022/02/18 01:09:03;;;;;;;10.65;9.95;;;;;;;3.18;100.00;99933.75;5013736;28;20407;-84
2022/02/18 01:11:38;;;;;;;10.55;9.85;;;;;;;3.12;100.00;99935.56;5001472;28;20061;-84
2022/02/18 01:14:11;;;;;;;11.13;10.43;;;;;;;3.24;100.00;99940.81;5006440;28;20050;-84
2022/02/18 01:16:44;;;;;;;11.25;10.55;;;;;;;3.32;100.00;99958.41;5008687;28;20533;-84
2022/02/18 01:19:12;;;;;;;10.98;10.27;;;;;;;3.32;100.00;99953.84;5009401;28;20061;-84
2022/02/18 01:21:41;;;;;;;11.82;11.02;;;;;;;3.21;100.00;99941.31;5003038;28;20041;-84
2022/02/18 01:24:09;;;;;;;10.63;9.93;;;;;;;3.31;100.00;99962.94;5011477;28;20479;-83
2022/02/18 01:26:38;;;;;;;10.52;9.82;;;;;;;3.38;100.00;99965.47;5012937;28;20054;-84
2022/02/18 01:29:11;;;;;;;10.18;9.48;;;;;;;3.51;100.00;99980.44;5008475;28;20487;-84
2022/02/18 01:31:39;;;;;;;11.35;10.65;;;;;;;3.53;100.00;99986.38;5012139;28;20057;-85
2022/02/18 01:34:08;;;;;;;10.35;9.65;;;;;;;3.47;100.00;99979.31;5010383;28;20065;-84
2022/02/18 01:36:36;;;;;;;9.73;9.05;;;;;;;3.59;100.00;99993.47;5005928;28;20065;-84
2022/02/18 01:39:10;;;;;;;8.68;8.07;;;;;;;3.57;100.00;99995.56;5007135;28;20057;-83
2022/02/18 01:41:40;;;;;;;8.55;7.95;;;;;;;3.55;100.00;99986.94;4997345;28;20045;-84
2022/02/18 01:44:08;;;;;;;8.70;8.10;;;;;;;3.54;100.00;99994.19;5004099;28;20050;-83
2022/02/18 01:46:41;;;;;;;8.85;8.25;;;;;;;3.53;100.00;99976.41;5006708;28;20054;-84
2022/02/18 01:49:10;;;;;;;8.50;7.90;;;;;;;3.57;100.00;99982.13;5002450;28;20050;-83
2022/02/18 01:51:43;;;;;;;8.55;7.95;;;;;;;3.49;100.00;99979.88;5013472;28;20045;-84
2022/02/18 01:54:11;;;;;;;8.38;7.78;;;;;;;3.33;100.00;99985.06;5006236;28;20045;-84
2022/02/18 01:56:41;;;;;;;8.05;7.45;;;;;;;3.35;100.00;99993.66;5009482;28;20053;-84
2022/02/18 01:59:10;;;;;;;8.20;7.60;;;;;;;3.29;100.00;99989.28;5007521;28;20053;-84
2022/02/18 02:01:44;;;;;;;8.15;7.55;;;;;;;3.23;100.00;99980.34;4999410;28;20053;-83
2022/02/18 02:04:17;;;;;;;7.47;6.97;;;;;;;3.34;100.00;99973.25;5011570;28;20045;-83
2022/02/18 02:06:45;;;;;;;7.78;7.25;;;;;;;3.25;100.00;99973.91;5012394;28;20064;-83
2022/02/18 02:09:19;;;;;;;7.88;7.35;;;;;;;3.29;100.00;99973.16;5009494;28;20060;-83
2022/02/18 02:11:55;;;;;;;7.10;6.60;;;;;;;3.18;100.00;99956.06;5012719;28;20045;-85
2022/02/18 02:14:32;;;;;;;7.20;6.70;;;;;;;3.38;100.00;99963.59;5007160;28;20053;-84
2022/02/18 02:17:00;;;;;;;6.40;5.95;;;;;;;3.19;100.00;99968.47;5008063;28;20046;-84
2022/02/18 02:19:33;;;;;;;6.75;6.25;;;;;;;3.17;100.00;99965.19;5002778;28;20041;-84
2022/02/18 02:22:08;;;;;;;6.85;6.35;;;;;;;3.11;100.00;99968.06;5006352;28;20042;-84
2022/02/18 02:24:43;;;;;;;7.43;6.93;;;;;;;3.01;100.00;99960.66;5001147;28;20069;-84
2022/02/18 02:27:16;;;;;;;7.03;6.53;;;;;;;2.98;100.00;99963.84;4998180;28;20054;-84
2022/02/18 02:29:51;;;;;;;7.60;7.10;;;;;;;2.88;100.00;99956.47;5008576;28;20513;-84
2022/02/18 02:32:20;;;;;;;6.70;6.20;;;;;;;2.89;100.00;99948.16;5008781;28;20410;-84
2022/02/18 02:34:49;;;;;;;7.32;6.82;;;;;;;2.85;100.00;99935.47;5010169;28;20045;-83
2022/02/18 02:37:22;;;;;;;7.13;6.63;;;;;;;2.72;100.00;99921.31;5009767;28;20061;-83
2022/02/18 02:39:57;;;;;;;7.50;7.00;;;;;;;2.80;100.00;99922.75;5003696;28;20054;-83
2022/02/18 02:42:32;;;;;;;6.30;5.88;;;;;;;2.67;100.00;99929.28;4992866;28;20054;-84
2022/02/18 02:45:11;;;;;;;7.35;6.85;;;;;;;2.62;100.00;99926.50;5002124;28;20057;-84
2022/02/18 02:47:40;;;;;;;6.97;6.47;;;;;;;2.53;100.00;99938.75;5004843;28;20062;-83
2022/02/18 02:50:33;;;;;;;6.90;6.40;;;;;;;2.55;100.00;99948.19;5001490;28;20045;-84
2022/02/18 02:53:07;;;;;;;7.18;6.68;;;;;;;2.53;100.00;99955.66;5005101;28;20406;-84
2022/02/18 02:55:42;;;;;;;7.00;6.50;;;;;;;2.47;100.00;99953.97;5019781;28;20050;-84
2022/02/18 02:58:15;;;;;;;7.00;6.50;;;;;;;2.50;100.00;99960.69;5001815;28;20048;-84
2022/02/18 03:00:49;;;;;;;6.63;6.13;;;;;;;2.39;100.00;99951.69;5020308;28;20054;-84
2022/02/18 03:03:36;;;;;;;6.82;6.32;;;;;;;2.26;100.00;99954.69;5008705;28;20042;-84
2022/02/18 03:06:09;;;;;;;7.38;6.88;;;;;;;2.30;100.00;99943.19;5005000;28;20046;-83
2022/02/18 03:08:43;;;;;;;7.07;6.57;;;;;;;2.34;100.00;99952.41;5011666;28;20096;-84
2022/02/18 03:11:35;;;;;;;7.88;7.30;;;;;;;2.28;100.00;99952.53;5008032;28;20065;-84
2022/02/18 03:14:26;;;;;;;8.18;7.57;;;;;;;2.30;100.00;99953.94;5012465;28;20529;-83
2022/02/18 03:17:09;;;;;;;8.25;7.65;;;;;;;2.22;100.00;99962.38;4998848;28;20072;-84
2022/02/18 03:19:42;;;;;;;8.75;8.15;;;;;;;2.24;100.00;99970.19;5004169;28;20483;-83
2022/02/18 03:22:11;;;;;;;8.90;8.30;;;;;;;2.21;100.00;99961.59;5008536;28;20050;-84
2022/02/18 03:24:44;;;;;;;9.13;8.52;;;;;;;2.15;100.00;99951.81;4996170;28;20046;-83
2022/02/18 03:27:19;;;;;;;8.95;8.35;;;;;;;2.14;100.00;99946.69;5009128;28;20054;-83
2022/02/18 03:29:52;;;;;;;9.55;8.90;;;;;;;2.27;100.00;99957.13;5003836;28;20072;-84
2022/02/18 03:32:30;;;;;;;8.93;8.32;;;;;;;2.23;100.00;99960.53;5003480;28;20406;-85
2022/02/18 03:35:06;;;;;;;8.85;8.25;;;;;;;2.23;100.00;99963.22;5011394;28;20506;-83
2022/02/18 03:37:45;;;;;;;9.90;9.20;;;;;;;2.08;100.00;99956.50;5001205;28;20474;-84
2022/02/18 03:40:28;;;;;;;10.38;9.68;;;;;;;2.12;100.00;99959.53;5010101;28;20057;-83
2022/02/18 03:43:03;;;;;;;11.07;10.38;;;;;;;2.11;100.00;99958.72;5004754;28;20049;-83
2022/02/18 03:45:37;;;;;;;9.85;9.15;;;;;;;1.99;100.00;99947.22;5010924;28;20046;-83
2022/02/18 03:48:22;;;;;;;10.15;9.45;;;;;;;2.00;100.00;99957.75;5005398;28;20414;-83
2022/02/18 03:50:56;;;;;;;10.55;9.85;;;;;;;2.09;100.00;99958.16;5008464;28;20049;-83
2022/02/18 03:53:29;;;;;;;11.30;10.60;;;;;;;2.06;100.00;99949.75;5008136;28;20046;-83
2022/02/18 03:56:15;;;;;;;10.48;9.77;;;;;;;2.03;100.00;99957.25;4996261;28;20518;-83
2022/02/18 03:58:55;;;;;;;10.98;10.27;;;;;;;2.07;100.00;99946.81;5003634;28;20054;-84
2022/02/18 04:01:28;;;;;;;11.60;10.80;;;;;;;2.02;100.00;99947.56;5009649;28;20054;-83
2022/02/18 04:04:02;;;;;;;11.77;10.98;;;;;;;2.04;100.00;99950.00;5004489;28;20502;-84
2022/02/18 04:06:41;;;;;;;12.40;11.60;;;;;;;2.02;100.00;99949.44;5006557;28;20410;-84
2022/02/18 04:09:20;;;;;;;12.88;12.07;;;;;;;1.99;100.00;99942.69;5013581;28;20054;-84
2022/02/18 04:11:57;;;;;;;13.15;12.35;;;;;;;1.94;100.00;99953.31;5008931;28;20698;-83
2022/02/18 04:14:36;;;;;;;12.07;11.27;;;;;;;2.02;100.00;99947.56;5007796;28;20053;-83
2022/02/18 04:17:13;;;;;;;13.77;12.88;;;;;;;2.06;100.00;99939.84;5006023;28;20061;-83
2022/02/18 04:19:52;;;;;;;14.00;13.10;;;;;;;2.12;100.00;99944.25;5010500;28;20495;-83
2022/02/18 04:22:34;;;;;;;14.15;13.25;;;;;;;2.03;100.00;99943.00;5006583;28;20139;-83
2022/02/18 04:25:04;;;;;;;14.30;13.40;;;;;;;2.09;100.00;99946.59;5012146;28;20053;-83
2022/02/18 04:27:37;;;;;;;15.98;14.98;;;;;;;2.15;100.00;99951.00;5008433;28;20045;-84
2022/02/18 04:30:12;;;;;;;15.52;14.63;;;;;;;2.07;100.00;99960.25;5011394;28;20057;-84
2022/02/18 04:32:45;;;;;;;16.05;15.05;;;;;;;2.06;100.00;99965.84;5010331;28;20507;-83
2022/02/18 04:35:13;;;;;;;15.70;14.75;;;;;;;2.06;100.00;99958.63;5010007;28;20042;-83
2022/02/18 04:37:42;;;;;;;16.10;15.10;;;;;;;1.97;100.00;99952.81;5012121;28;20061;-84
2022/02/18 04:40:17;;;;;;;15.35;14.45;;;;;;;2.08;100.00;99955.72;5012868;28;20046;-83
2022/02/18 04:42:50;;;;;;;16.85;15.85;;;;;;;2.00;100.00;99954.22;5012668;28;20042;-83
2022/02/18 04:45:19;;;;;;;16.67;15.68;;;;;;;1.82;100.00;99956.06;5011386;28;20137;-84
2022/02/18 04:47:52;;;;;;;16.27;15.27;;;;;;;1.94;100.00;99955.19;5005629;28;20491;-84
2022/02/18 04:50:25;;;;;;;18.75;17.65;;;;;;;1.92;100.00;99954.59;5011284;28;20046;-83
2022/02/18 04:52:58;;;;;;;19.65;18.52;;;;;;;1.95;100.00;99941.53;5019416;28;20060;-83
2022/02/18 04:55:31;;;;;;;17.77;16.73;;;;;;;1.90;100.00;99946.00;5012429;28;20046;-84
2022/02/18 04:58:04;;;;;;;19.60;18.48;;;;;;;1.90;100.00;99943.31;5012784;28;20061;-84
2022/02/18 05:00:39;;;;;;;19.77;18.63;;;;;;;1.98;100.00;99942.94;5009969;28;20081;-83
2022/02/18 05:03:12;;;;;;;20.63;19.42;;;;;;;1.90;100.00;99943.31;5012255;28;20053;-83
2022/02/18 05:05:45;;;;;;;21.35;20.15;;;;;;;1.86;100.00;99943.81;5013284;28;20053;-83
2022/02/18 05:08:18;;;;;;;22.10;20.83;;;;;;;1.94;100.00;99949.81;5011441;28;20161;-83
2022/02/18 05:10:54;;;;;;;22.73;21.42;;;;;;;1.98;100.00;99943.72;5002286;28;20050;-85
2022/02/18 05:13:27;;;;;;;24.77;23.38;;;;;;;1.97;100.00;99928.66;5012065;28;20042;-83
2022/02/18 05:16:02;;;;;;;24.30;22.92;;;;;;;2.01;100.00;99940.56;5014156;28;20054;-84
2022/02/18 05:18:37;;;;;;;24.08;22.70;;;;;;;2.02;100.00;99936.81;5008584;28;20045;-84
2022/02/18 05:21:10;;;;;;;27.08;25.58;;;;;;;2.01;100.00;99934.38;5020799;28;20080;-84
2022/02/18 05:23:38;;;;;;;28.38;26.77;;;;;;;2.12;100.00;99936.19;5012538;28;20057;-84
2022/02/18 05:26:06;;;;;;;28.67;27.08;;;;;;;2.11;100.00;99923.81;5019709;28;20058;-84
2022/02/18 05:28:34;;;;;;;30.17;28.48;;;;;;;2.11;100.00;99931.06;5010552;28;20057;-84
2022/02/18 05:31:08;;;;;;;31.80;30.10;;;;;;;2.06;100.00;99901.44;5012178;28;20057;-84
2022/02/18 05:33:36;;;;;;;31.33;29.63;;;;;;;2.07;100.00;99909.25;5008177;28;20050;-84
2022/02/18 05:36:10;;;;;;;31.08;29.38;;;;;;;2.11;100.00;99905.03;5008568;28;20054;-84
2022/02/18 05:38:43;;;;;;;31.38;29.67;;;;;;;2.01;100.00;99910.22;5009533;28;20049;-84
2022/02/18 05:41:17;;;;;;;32.70;30.90;;;;;;;2.02;100.00;99893.09;4999885;28;20046;-83
2022/02/18 05:43:51;;;;;;;32.28;30.50;;;;;;;2.00;100.00;99890.66;5010899;28;20057;-83
2022/02/18 05:46:20;;;;;;;32.13;30.35;;;;;;;1.99;100.00;99894.38;5010120;28;20066;-84
2022/02/18 05:48:53;;;;;;;34.83;32.92;;;;;;;1.97;100.00;99887.63;5008603;28;20050;-83
2022/02/18 05:51:26;;;;;;;36.20;34.22;;;;;;;1.95;100.00;99884.38;5005914;28;20122;-84
2022/02/18 05:53:54;;;;;;;37.42;35.42;;;;;;;1.96;100.00;99877.94;5008572;28;20843;-83
2022/02/18 05:56:22;;;;;;;35.65;33.72;;;;;;;1.91;100.00;99885.91;5010963;28;20060;-84
2022/02/18 05:58:55;;;;;;;40.30;38.13;;;;;;;2.00;100.00;99879.06;5011782;28;20038;-83
2022/02/18 06:01:25;;;;;;;40.67;38.47;;;;;;;2.04;100.00;99875.69;5009506;28;20046;-84
2022/02/18 06:03:53;;;;;;;41.75;39.50;;;;;;;2.04;100.00;99869.47;5006754;28;20046;-83
2022/02/18 06:06:27;;;;;;;43.70;41.35;;;;;;;2.04;100.00;99873.00;5003477;28;20069;-83
2022/02/18 06:09:00;;;;;;;45.35;42.95;;;;;;;2.06;100.00;99871.91;5002326;28;20660;-83
2022/02/18 06:11:35;;;;;;;43.72;41.38;;;;;;;2.02;100.00;99872.41;5007622;28;20048;-83
2022/02/18 06:14:08;;;;;;;48.40;45.80;;;;;;;1.96;100.00;99853.78;5007893;28;20049;-84
2022/02/18 06:16:37;;;;;;;50.10;47.42;;;;;;;2.08;100.00;99857.22;5010991;28;20483;-85
2022/02/18 06:19:07;;;;;;;49.28;46.65;;;;;;;2.12;100.00;99866.41;5008617;28;20050;-83
2022/02/18 06:21:37;;;;;;;52.03;49.25;;;;;;;2.07;100.00;99863.63;5011415;28;20058;-84
2022/02/18 06:24:10;;;;;;;52.78;49.95;;;;;;;2.03;100.00;99846.38;5005012;28;20049;-83
2022/02/18 06:26:43;;;;;;;55.17;52.22;;;;;;;2.10;100.00;99862.31;5007347;28;20057;-84
2022/02/18 06:29:16;;;;;;;58.45;55.35;;;;;;;2.14;100.00;99852.72;5005901;28;20050;-83
2022/02/18 06:31:51;;;;;;;59.53;56.35;;;;;;;2.13;100.00;99853.81;5011188;28;20054;-84
2022/02/18 06:34:24;;;;;;;58.53;55.40;;;;;;;2.07;100.00;99835.97;5011550;28;20050;-83
2022/02/18 06:36:57;;;;;;;60.17;56.95;;;;;;;1.98;100.00;99841.75;5010367;28;20046;-83
2022/02/18 06:39:26;;;;;;;62.45;59.10;;;;;;;2.02;100.00;99831.34;5004296;28;20046;-83
2022/02/18 06:41:59;;;;;;;66.78;63.17;;;;;;;1.98;100.00;99832.91;5008429;28;20129;-84
2022/02/18 06:44:27;;;;;;;69.82;66.13;;;;;;;1.95;100.00;99804.69;5001626;28;20047;-83
2022/02/18 06:46:57;;;;;;;74.45;70.47;;;;;;;2.12;100.00;99814.59;5010285;28;20072;-84
2022/02/18 06:49:30;;;;;;;74.57;70.57;;;;;;;2.08;100.00;99816.94;5006585;28;20065;-83
2022/02/18 06:52:04;;;;;;;78.80;74.63;;;;;;;2.02;100.00;99802.63;5010997;28;20049;-84
2022/02/18 06:54:37;;;;;;;78.13;73.97;;;;;;;2.14;100.00;99815.97;5002387;28;20042;-84
2022/02/18 06:57:11;;;;;;;86.22;81.68;;;;;;;2.17;100.00;99806.63;5001887;28;20054;-83
2022/02/18 06:59:45;;;;;;;87.15;82.55;;;;;;;2.14;100.00;99807.09;5006894;28;20050;-83
2022/02/18 07:02:14;;;;;;;89.38;84.68;;;;;;;2.06;100.00;99784.19;5002541;28;20058;-83
2022/02/18 07:04:48;;;;;;;96.15;91.15;;;;;;;2.20;100.00;99790.03;5004792;28;20064;-83
2022/02/18 07:07:21;;;;;;;101.25;96.03;;;;;;;2.15;100.00;99771.94;5009101;28;20049;-83
2022/02/18 07:09:54;;;;;;;97.88;92.78;;;;;;;2.16;100.00;99778.16;4999380;28;20050;-83
2022/02/18 07:12:27;;;;;;;110.90;105.18;;;;;;;2.23;100.00;99768.03;5001310;28;20054;-84
2022/02/18 07:14:56;;;;;;;111.30;105.53;;;;;;;2.29;100.00;99774.28;5001312;28;20065;-84
2022/02/18 07:17:31;;;;;;;122.28;115.93;;;;;;;2.32;100.00;99769.25;5019059;28;20057;-84
2022/02/18 07:20:07;;;;;;;127.40;120.80;;;;;;;2.31;100.00;99762.25;5007742;28;20767;-85
2022/02/18 07:22:42;;;;;;;131.68;124.82;;;;;;;2.35;100.00;99755.34;5007945;28;20060;-85
2022/02/18 07:25:16;;;;;;;133.90;126.90;;;;;;;2.52;100.00;99754.47;5008101;28;20061;-85
2022/02/18 07:27:49;;;;;;;146.40;138.75;;;;;;;2.44;100.00;99757.59;5003967;28;20045;-83
2022/02/18 07:30:22;;;;;;;151.98;143.98;;;;;;;2.42;100.00;99746.28;5006657;28;20061;-83
2022/02/18 07:32:57;;;;;;;159.63;151.10;;;;;;;2.43;100.00;99740.69;5003388;28;20061;-82
2022/02/18 07:35:32;;;;;;;171.35;162.20;;;;;;;2.46;100.00;99744.72;5001467;28;20038;-83
2022/02/18 07:38:01;;;;;;;172.23;162.95;;;;;;;2.49;100.00;99736.19;5003759;28;20046;-83
2022/02/18 07:40:34;;;;;;;200.63;189.90;;;;;;;2.54;100.00;99738.91;5007689;28;20117;-83
2022/02/18 07:43:07;;;;;;;213.90;202.45;;;;;;;2.59;100.00;99725.53;5004781;28;20049;-84
2022/02/18 07:45:40;;;;;;;238.07;225.35;;;;;;;2.68;100.00;99728.59;5000701;28;20045;-84
2022/02/18 07:48:10;;;;;;;249.13;235.93;;;;;;;2.67;100.00;99729.69;5001024;28;20052;-86
2022/02/18 07:50:43;;;;;;;264.77;250.55;;;;;;;2.71;100.00;99728.13;4998180;28;20053;-82
2022/02/18 07:53:16;;;;;;;285.42;269.80;;;;;;;2.86;100.00;99720.22;5000282;28;20054;-82
2022/02/18 07:55:44;;;;;;;299.75;283.17;;;;;;;2.86;100.00;99712.16;5001988;28;20056;-82
2022/02/18 07:58:17;;;;;;;349.73;329.80;;;;;;;2.91;100.00;99705.22;5003444;28;20050;-81
2022/02/18 08:00:51;;;;;;;407.90;383.60;;;;;;;3.00;100.00;99696.44;5003359;28;20049;-81
2022/02/18 08:03:26;;;;;;;431.20;404.85;;;;;;;3.01;100.00;99698.06;5001188;28;20494;-82
2022/02/18 08:05:59;;;;;;;535.03;501.13;;;;;;;3.05;100.00;99699.19;4990864;28;20061;-81
2022/02/18 08:08:34;;;;;;;596.70;557.50;;;;;;;3.07;100.00;99696.25;4992658;28;20058;-83
2022/02/18 08:11:03;;;;;;;615.88;574.80;;;;;;;2.94;100.00;99672.44;4992599;28;20064;-81
2022/02/18 08:13:32;;;;;;;706.55;658.28;;;;;;;3.08;100.00;99687.13;4993154;28;21413;-82
2022/02/18 08:16:01;;;;;;;745.47;694.05;;;;;;;3.07;100.00;99674.75;4987676;28;20059;-81
2022/02/18 08:18:37;;;;;;;851.63;791.17;;;;;;;3.08;100.00;99664.78;4993070;28;20054;-82
2022/02/18 08:21:07;;;;;;;908.45;842.80;;;;;;;3.09;100.00;99651.09;4992977;28;20065;-81
2022/02/18 08:23:41;;;;;;;983.53;910.17;;;;;;;3.15;100.00;99654.63;4994417;28;20058;-82
2022/02/18 08:26:14;;;;;;;998.25;923.15;;;;;;;3.14;100.00;99655.72;4991143;28;20054;-82
2022/02/18 08:28:49;;;;;;;1056.15;974.47;;;;;;;3.14;100.00;99648.44;4985358;28;20673;-81
2022/02/18 08:31:18;;;;;;;1067.65;984.45;;;;;;;3.13;100.00;99640.66;4983964;28;20798;-81
2022/02/18 08:33:52;;;;;;;1094.03;999.22;;;;;;;3.20;100.00;99654.69;4987997;28;20054;-81
2022/02/18 08:36:21;;;;;;;1143.38;999.90;;;;;;;3.23;100.00;99640.72;4988939;28;20053;-81
2022/02/18 08:38:56;;;;;;;1135.55;999.90;;;;;;;3.22;100.00;99647.19;4987719;28;21738;-81
2022/02/18 08:41:25;;;;;;;1159.68;999.90;;;;;;;3.25;100.00;99635.91;4991360;28;20053;-81
2022/02/18 08:43:58;;;;;;;1163.65;999.90;;;;;;;3.24;100.00;99626.22;4986177;28;20723;-81
2022/02/18 08:46:27;;;;;;;1179.25;999.90;;;;;;;3.20;100.00;99625.09;4985786;28;20050;-82
2022/02/18 08:49:03;;;;;;;1182.68;999.90;;;;;;;3.26;100.00;99610.66;4994145;28;20061;-82
2022/02/18 08:51:37;;;;;;;1194.57;999.90;;;;;;;3.25;100.00;99611.72;4991603;28;20048;-82
2022/02/18 08:54:11;;;;;;;1200.22;999.90;;;;;;;3.27;100.00;99601.50;4996260;28;20058;-81
2022/02/18 08:56:45;;;;;;;1200.90;999.90;;;;;;;3.28;100.00;99592.38;4985768;28;20065;-82
2022/02/18 08:59:18;;;;;;;1207.55;999.90;;;;;;;3.38;100.00;99578.16;4985828;28;20054;-81
2022/02/18 09:01:51;;;;;;;1213.25;999.90;;;;;;;3.44;100.00;99577.16;4994175;28;20057;-81
2022/02/18 09:04:20;;;;;;;1210.75;999.90;;;;;;;3.48;100.00;99574.72;4989498;28;20576;-82
2022/02/18 09:06:53;;;;;;;1220.47;999.90;;;;;;;3.49;100.00;99565.59;4978176;28;20057;-82
2022/02/18 09:09:27;;;;;;;1217.22;999.90;;;;;;;3.50;100.00;99559.16;4982109;28;20049;-82
2022/02/18 09:12:00;;;;;;;1226.35;999.90;;;;;;;3.56;100.00;99553.56;4994389;28;20053;-82
2022/02/18 09:14:33;;;;;;;1228.97;999.90;;;;;;;3.61;100.00;99552.75;4982766;28;20061;-82
2022/02/18 09:17:21;;;;;;;1228.85;999.90;;;;;;;3.61;100.00;99543.88;4980257;28;20053;-82
2022/02/18 09:19:58;;;;;;;1231.25;999.90;;;;;;;3.66;100.00;99533.97;4990235;28;20046;-82
2022/02/18 09:22:27;;;;;;;1231.85;999.90;;;;;;;3.67;100.00;99521.31;4989581;28;21178;-82
2022/02/18 09:24:55;;;;;;;1234.40;999.90;;;;;;;3.71;100.00;99514.31;4989442;28;20058;-82
2022/02/18 09:27:29;;;;;;;1238.63;999.90;;;;;;;3.74;100.00;99509.25;4978579;28;20562;-82
2022/02/18 09:29:59;;;;;;;1244.35;999.90;;;;;;;3.75;100.00;99500.06;4998130;28;20085;-82
2022/02/18 09:32:34;;;;;;;1244.13;999.90;;;;;;;3.73;100.00;99499.53;4985650;28;20509;-82
2022/02/18 09:35:09;;;;;;;1244.55;999.90;;;;;;;3.79;100.00;99494.97;4976513;28;20387;-81
2022/02/18 09:37:42;;;;;;;1250.82;999.90;;;;;;;3.80;100.00;99493.09;4988833;28;20641;-82
2022/02/18 09:40:16;;;;;;;1247.28;999.90;;;;;;;3.74;100.00;99489.56;4984417;28;20073;-82
2022/02/18 09:42:49;;;;;;;1247.72;999.90;;;;;;;3.76;100.00;99482.06;4986428;28;20058;-82
2022/02/18 09:45:23;;;;;;;1252.32;999.90;;;;;;;3.81;100.00;99468.63;4986098;28;20058;-82
2022/02/18 09:47:58;;;;;;;1252.55;999.90;;;;;;;3.86;100.00;99459.75;4987084;28;20061;-81
2022/02/18 09:50:32;;;;;;;1255.55;999.90;;;;;;;3.81;100.00;99454.34;4989361;28;20054;-82
2022/02/18 09:53:00;;;;;;;1255.38;999.90;;;;;;;3.83;100.00;99441.44;4978936;28;20065;-82
2022/02/18 09:55:38;;;;;;;1259.20;999.90;;;;;;;3.87;100.00;99440.66;4988141;28;20076;-82
2022/02/18 09:58:11;;;;;;;1260.03;999.90;;;;;;;3.94;100.00;99423.44;4986934;28;20521;-82
2022/02/18 10:00:39;;;;;;;1261.43;999.90;;;;;;;3.88;100.00;99384.91;4980905;28;20045;-82
2022/02/18 10:03:13;;;;;;;1263.63;999.90;;;;;;;3.92;100.00;99359.91;4981562;28;20058;-82
2022/02/18 10:05:49;;;;;;;1264.38;999.90;;;;;;;3.82;100.00;99338.34;4984549;28;20057;-82
2022/02/18 10:08:22;;;;;;;1268.47;999.90;;;;;;;3.91;100.00;99336.75;4982215;28;21263;-82
2022/02/18 10:10:59;;;;;;;1269.15;999.90;;;;;;;3.94;100.00;99337.31;4984164;28;20058;-82
2022/02/18 10:13:36;;;;;;;1269.13;999.90;;;;;;;3.96;100.00;99333.25;4989584;28;20045;-82
2022/02/18 10:16:14;;;;;;;1269.55;999.90;;;;;;;3.95;100.00;99317.38;4983799;28;20053;-82
2022/02/18 10:18:49;;;;;;;1275.13;999.90;;;;;;;3.96;100.00;99319.00;4990078;28;20146;-82
2022/02/18 10:21:27;;;;;;;1272.45;999.90;;;;;;;3.86;100.00;99309.84;4994262;28;20058;-83
2022/02/18 10:24:08;;;;;;;1271.30;999.90;;;;;;;3.94;100.00;99299.63;4988716;28;20057;-83
2022/02/18 10:26:43;;;;;;;1272.07;999.90;;;;;;;3.81;100.00;99295.56;4988507;28;20050;-82
2022/02/18 10:29:19;;;;;;;1271.85;999.90;;;;;;;3.82;100.00;99279.16;4990915;28;20064;-82
2022/02/18 10:32:07;;;;;;;1274.03;999.90;;;;;;;3.83;100.00;99267.31;4986072;28;20064;-83
2022/02/18 10:34:56;;;;;;;1270.13;999.90;;;;;;;3.78;100.00;99248.47;4994882;28;20058;-83
2022/02/18 10:37:32;;;;;;;1273.75;999.90;;;;;;;3.82;100.00;99235.31;4983163;28;20050;-83
2022/02/18 10:40:08;;;;;;;1271.75;999.90;;;;;;;3.74;100.00;99217.81;4983684;28;20061;-83
2022/02/18 10:42:42;;;;;;;1271.75;999.90;;;;;;;3.76;100.00;99212.97;4982148;28;20045;-82
2022/02/18 10:45:18;;;;;;;1272.53;999.90;;;;;;;3.74;100.00;99199.78;4971353;28;20060;-83
2022/02/18 10:48:05;;;;;;;1270.20;999.90;;;;;;;3.79;100.00;99182.81;4982138;28;20053;-83
2022/02/18 10:50:38;;;;;;;1273.28;999.90;;;;;;;3.80;100.00;99172.84;4980828;28;20052;-83
2022/02/18 10:53:15;;;;;;;1273.22;999.90;;;;;;;3.79;100.00;99157.81;4979218;28;20549;-82
2022/02/18 10:55:50;;;;;;;1268.28;999.90;;;;;;;3.81;100.00;99147.56;4979205;28;20045;-83
2022/02/18 10:58:23;;;;;;;1271.65;999.90;;;;;;;3.83;100.00;99130.06;4986942;28;20609;-82
2022/02/18 11:01:05;;;;;;;1271.43;999.90;;;;;;;3.88;100.00;99122.00;4978247;28;20046;-82
2022/02/18 11:03:40;;;;;;;1274.07;999.90;;;;;;;3.87;100.00;99106.91;4979445;28;20050;-85
2022/02/18 11:06:20;;;;;;;1275.38;999.90;;;;;;;3.98;100.00;99107.69;4980272;28;20061;-84
2022/02/18 11:09:00;;;;;;;1278.38;999.90;;;;;;;4.05;100.00;99094.75;4981790;28;20053;-84
2022/02/18 11:11:35;;;;;;;1275.80;999.90;;;;;;;4.04;100.00;99078.88;4976790;28;20422;-84
2022/02/18 11:14:05;;;;;;;1281.45;999.90;;;;;;;4.12;100.00;99062.13;4979244;28;21896;-85
2022/02/18 11:16:35;;;;;;;1273.25;999.90;;;;;;;4.14;100.00;99046.50;4979920;28;20070;-85
2022/02/18 11:19:04;;;;;;;1273.43;999.90;;;;;;;4.15;100.00;99034.66;4984319;28;20209;-82
2022/02/18 11:21:32;;;;;;;1272.22;999.90;;;;;;;4.15;100.00;99023.88;4984691;28;20426;-84
2022/02/18 11:24:03;;;;;;;1268.75;999.90;;;;;;;4.11;100.00;99003.19;4986736;28;20061;-84
2022/02/18 11:26:36;;;;;;;1271.25;999.90;;;;;;;4.13;100.00;99007.22;4985978;28;20273;-83
2022/02/18 11:29:10;;;;;;;1270.55;999.90;;;;;;;4.11;100.00;98993.22;4987870;28;20057;-82
2022/02/18 11:31:50;;;;;;;1272.70;999.90;;;;;;;4.16;100.00;98979.72;4988925;28;20053;-83
2022/02/18 11:34:46;;;;;;;1273.70;999.90;;;;;;;4.14;100.00;98975.72;4989294;28;20049;-83
2022/02/18 11:37:45;;;;;;;1272.13;999.90;;;;;;;4.10;100.00;98970.06;4983299;28;20061;-83
2022/02/18 11:40:41;;;;;;;1276.35;999.90;;;;;;;4.16;100.00;98925.88;4988137;28;20088;-83
2022/02/18 11:43:23;;;;;;;;;;;;;;;4.09;100.00;98920.03;4990521;28;20499;-83